Time;durP1;ratioP1;P1;durP2;ratioP2;P2;SDS_P1;SDS_P2;PMS_P1;PMS_P2;Temp;Humidity;BMP_temperature;BMP_pressure;BME280_temperature;BME280_humidity;BME280_pressure;Samples;Min_cycle;Max_cycle;Signal;HPM_P1;HPM_P2
2021/03/27 00:02:02;;;;;;;5.78;4.22;;;10.70;99.90;;;;;;6070439;23;20031;-72
2021/03/27 00:05:06;;;;;;;6.07;4.00;;;10.60;99.90;;;;;;6070388;23;20003;-72
2021/03/27 00:08:11;;;;;;;6.55;4.28;;;10.60;99.90;;;;;;6036955;23;20014;-72
2021/03/27 00:11:01;;;;;;;6.13;3.88;;;10.50;99.90;;;;;;6057072;23;20014;-72
2021/03/27 00:13:30;;;;;;;7.50;3.42;;;10.50;99.90;;;;;;6070565;23;20015;-72
2021/03/27 00:16:37;;;;;;;5.60;3.42;;;10.50;99.90;;;;;;6069928;23;20042;-72
2021/03/27 00:19:27;;;;;;;5.35;3.38;;;10.50;99.90;;;;;;6040513;23;20094;-72
2021/03/27 00:21:57;;;;;;;4.38;2.75;;;10.40;99.90;;;;;;6070354;23;20006;-72
2021/03/27 00:25:00;;;;;;;4.15;3.20;;;10.20;99.90;;;;;;6070050;23;20006;-72
2021/03/27 00:27:33;;;;;;;6.32;3.50;;;10.20;99.90;;;;;;6069850;23;20046;-72
2021/03/27 00:30:06;;;;;;;6.85;3.50;;;10.20;99.90;;;;;;6070277;23;20011;-72
2021/03/27 00:32:37;;;;;;;7.63;3.50;;;10.10;99.90;;;;;;6070114;23;20003;-72
2021/03/27 00:35:17;;;;;;;6.60;3.35;;;10.00;99.90;;;;;;6070204;23;20006;-72
2021/03/27 00:37:45;;;;;;;4.50;2.75;;;10.00;99.90;;;;;;6070570;23;20006;-72
2021/03/27 00:40:16;;;;;;;5.25;3.00;;;10.00;99.90;;;;;;6069448;23;20006;-72
2021/03/27 00:43:36;;;;;;;7.35;3.08;;;10.10;99.90;;;;;;6070246;23;20006;-72
2021/03/27 00:46:06;;;;;;;7.10;2.72;;;10.10;99.90;;;;;;6009888;23;20003;-72
2021/03/27 00:48:58;;;;;;;4.90;3.25;;;10.20;99.90;;;;;;6066588;23;20011;-72
2021/03/27 00:51:28;;;;;;;3.50;2.70;;;10.20;99.90;;;;;;6070294;23;20033;-72
2021/03/27 00:54:10;;;;;;;6.55;3.10;;;10.20;99.90;;;;;;6070395;23;20466;-72
2021/03/27 00:56:58;;;;;;;5.60;3.00;;;10.20;99.90;;;;;;6070014;23;20027;-72
2021/03/27 00:59:35;;;;;;;6.30;3.30;;;10.30;99.90;;;;;;6069648;23;20013;-72
2021/03/27 01:02:06;;;;;;;8.35;3.17;;;10.30;99.90;;;;;;6070282;23;20010;-72
2021/03/27 01:04:34;;;;;;;4.20;2.97;;;10.30;99.90;;;;;;6069587;23;20172;-72
2021/03/27 01:07:14;;;;;;;4.45;2.80;;;10.20;99.90;;;;;;6069443;23;20431;-72
2021/03/27 01:09:50;;;;;;;6.30;3.03;;;10.10;99.90;;;;;;6069995;23;20110;-72
2021/03/27 01:12:32;;;;;;;5.95;2.72;;;10.00;99.90;;;;;;6070490;23;20017;-72
2021/03/27 01:15:03;;;;;;;5.60;2.78;;;10.10;99.90;;;;;;6069585;23;20023;-72
2021/03/27 01:17:33;;;;;;;5.25;2.80;;;10.10;99.90;;;;;;6069762;23;20102;-72
2021/03/27 01:20:07;;;;;;;4.50;2.33;;;10.10;99.90;;;;;;6069324;23;20042;-72
2021/03/27 01:22:33;;;;;;;5.18;2.55;;;10.00;99.90;;;;;;6070040;23;20007;-72
2021/03/27 01:25:03;;;;;;;6.47;2.50;;;9.90;99.90;;;;;;6069533;23;20007;-72
2021/03/27 01:27:35;;;;;;;6.25;2.92;;;9.80;99.90;;;;;;6069149;23;20474;-72
2021/03/27 01:30:32;;;;;;;5.05;2.60;;;9.90;99.90;;;;;;6069310;23;20343;-72
2021/03/27 01:33:25;;;;;;;8.60;2.80;;;9.90;99.90;;;;;;6069336;23;20446;-72
2021/03/27 01:36:13;;;;;;;5.57;2.40;;;9.80;99.90;;;;;;6061399;23;20041;-72
2021/03/27 01:38:49;;;;;;;5.88;2.42;;;9.80;99.90;;;;;;6070050;23;20435;-72
2021/03/27 01:41:30;;;;;;;5.80;2.47;;;9.80;99.90;;;;;;6069103;23;20006;-72
2021/03/27 01:44:17;;;;;;;7.32;2.40;;;9.80;99.90;;;;;;6069704;23;20018;-72
2021/03/27 01:47:04;;;;;;;5.88;2.10;;;9.80;99.90;;;;;;6069574;23;20003;-72
2021/03/27 01:49:33;;;;;;;6.28;2.40;;;9.80;99.90;;;;;;6068530;23;20091;-72
2021/03/27 01:51:58;;;;;;;7.47;2.42;;;9.80;99.90;;;;;;6069261;23;20003;-72
2021/03/27 01:54:32;;;;;;;6.15;2.35;;;9.70;99.90;;;;;;6068992;23;20479;-72
2021/03/27 01:57:21;;;;;;;4.65;2.40;;;9.70;99.90;;;;;;6069437;23;20011;-72
2021/03/27 01:59:54;;;;;;;3.88;2.20;;;9.70;99.90;;;;;;6069003;23;20034;-72
2021/03/27 02:02:49;;;;;;;5.93;2.05;;;9.80;99.90;;;;;;6069173;23;20014;-72
2021/03/27 02:05:33;;;;;;;7.22;1.90;;;9.80;99.90;;;;;;6069116;23;20502;-72
2021/03/27 02:08:19;;;;;;;8.77;2.30;;;9.70;99.90;;;;;;6069367;23;20007;-72
2021/03/27 02:10:53;;;;;;;9.52;2.47;;;9.60;99.90;;;;;;6069693;23;20085;-72
2021/03/27 02:13:56;;;;;;;8.90;2.30;;;9.50;99.90;;;;;;6069080;23;20027;-72
2021/03/27 02:16:27;;;;;;;4.72;1.90;;;9.40;99.90;;;;;;6068884;23;19999;-72
2021/03/27 02:19:26;;;;;;;6.07;2.20;;;9.30;99.90;;;;;;6069118;23;20003;-72
2021/03/27 02:21:55;;;;;;;7.35;1.92;;;9.30;99.90;;;;;;6070370;23;20038;-72
2021/03/27 02:24:42;;;;;;;7.03;1.98;;;9.30;99.90;;;;;;6069032;23;20439;-72
2021/03/27 02:27:22;;;;;;;9.52;2.28;;;9.10;99.90;;;;;;6069245;23;20006;-72
2021/03/27 02:30:08;;;;;;;6.28;2.53;;;8.90;99.90;;;;;;6067733;23;20339;-72
2021/03/27 02:32:54;;;;;;;7.90;2.40;;;8.90;99.90;;;;;;6069412;23;20007;-72
2021/03/27 02:35:31;;;;;;;7.10;2.38;;;8.90;99.90;;;;;;6069317;23;20420;-72
2021/03/27 02:38:32;;;;;;;8.43;2.40;;;9.00;99.90;;;;;;6069481;23;20003;-72
2021/03/27 02:41:19;;;;;;;8.43;1.83;;;9.10;99.90;;;;;;6068826;23;20003;-72
2021/03/27 02:44:04;;;;;;;5.60;1.80;;;9.10;99.90;;;;;;6069302;23;20018;-72
2021/03/27 02:46:45;;;;;;;5.95;2.53;;;9.20;99.90;;;;;;6069203;23;20003;-72
2021/03/27 02:49:14;;;;;;;;;;;9.50;99.90;;;;;;6069309;23;20013;-72
2021/03/27 02:52:06;;;;;;;4.20;2.08;;;9.50;99.90;;;;;;6069075;23;19936;-72
2021/03/27 02:54:56;;;;;;;4.05;1.83;;;9.50;99.90;;;;;;6069321;23;20066;-72
2021/03/27 02:57:27;;;;;;;6.82;2.83;;;9.60;99.90;;;;;;6068795;23;20030;-72
2021/03/27 02:59:58;;;;;;;;;;;9.60;99.90;;;;;;6069566;23;20003;-72
2021/03/27 03:02:42;;;;;;;4.80;1.75;;;9.60;99.90;;;;;;6069218;23;20356;-72
2021/03/27 03:05:23;;;;;;;4.45;1.55;;;9.60;99.90;;;;;;6070629;23;20082;-72
2021/03/27 03:08:33;;;;;;;6.50;1.50;;;9.60;99.90;;;;;;6071261;23;20007;-72
2021/03/27 03:11:27;;;;;;;4.13;1.52;;;9.60;99.90;;;;;;6067735;23;20062;-72
2021/03/27 03:14:02;;;;;;;2.90;1.35;;;9.60;99.90;;;;;;6070668;23;20057;-72
2021/03/27 03:16:54;;;;;;;6.00;1.80;;;9.60;99.90;;;;;;6070742;23;20006;-72
2021/03/27 03:19:27;;;;;;;5.05;1.50;;;9.60;99.90;;;;;;6070777;23;20082;-72
2021/03/27 03:22:23;;;;;;;3.83;1.45;;;9.60;99.90;;;;;;6071257;23;20014;-72
2021/03/27 03:25:02;;;;;;;4.45;1.95;;;9.60;99.90;;;;;;6070583;23;19998;-72
2021/03/27 03:27:55;;;;;;;5.53;2.00;;;9.60;99.90;;;;;;6071509;23;20010;-72
2021/03/27 03:30:27;;;;;;;5.60;1.52;;;9.60;99.90;;;;;;6059706;23;20010;-72
2021/03/27 03:33:07;;;;;;;4.20;1.50;;;9.60;99.90;;;;;;6070511;23;20010;-72
2021/03/27 03:35:55;;;;;;;6.65;1.60;;;9.50;99.90;;;;;;6070689;23;20012;-72
2021/03/27 03:38:33;;;;;;;4.70;1.67;;;9.50;99.90;;;;;;6070700;23;20026;-72
2021/03/27 03:41:07;;;;;;;2.60;1.42;;;9.50;99.90;;;;;;6071173;23;20033;-72
2021/03/27 03:43:55;;;;;;;1.58;1.10;;;9.60;99.90;;;;;;6071137;23;20039;-72
2021/03/27 03:46:28;;;;;;;3.47;1.27;;;9.50;99.90;;;;;;6070666;23;20010;-72
2021/03/27 03:49:40;;;;;;;3.50;1.13;;;9.60;99.90;;;;;;6070467;23;20007;-72
2021/03/27 03:52:13;;;;;;;4.10;1.38;;;9.50;99.90;;;;;;6070002;23;20319;-72
2021/03/27 03:54:52;;;;;;;4.68;1.42;;;9.50;99.90;;;;;;6070649;23;20007;-72
2021/03/27 03:57:54;;;;;;;3.75;1.38;;;9.60;99.90;;;;;;6070482;23;20030;-72
2021/03/27 04:00:51;;;;;;;5.80;1.40;;;9.50;99.90;;;;;;6039928;23;20038;-72
2021/03/27 04:03:22;;;;;;;6.78;1.83;;;9.50;99.90;;;;;;6070156;23;20061;-72
2021/03/27 04:06:01;;;;;;;3.78;1.35;;;9.50;99.90;;;;;;6069866;23;20026;-72
2021/03/27 04:08:43;;;;;;;4.80;1.27;;;9.40;99.90;;;;;;6070639;23;20007;-72
2021/03/27 04:11:23;;;;;;;2.38;1.00;;;9.40;99.90;;;;;;6071064;23;20007;-72
2021/03/27 04:13:54;;;;;;;6.00;0.95;;;9.50;99.90;;;;;;6070242;23;20025;-72
2021/03/27 04:16:25;;;;;;;2.72;0.80;;;9.40;99.90;;;;;;6070523;23;20003;-72
2021/03/27 04:19:30;;;;;;;5.20;1.15;;;9.40;99.90;;;;;;6070455;23;20007;-72
2021/03/27 04:22:18;;;;;;;2.63;1.20;;;9.40;99.90;;;;;;6056632;23;20011;-72
2021/03/27 04:24:50;;;;;;;2.50;0.63;;;9.30;99.90;;;;;;6070189;23;20026;-72
2021/03/27 04:27:28;;;;;;;2.88;0.88;;;9.30;99.90;;;;;;6070186;23;20013;-72
2021/03/27 04:30:06;;;;;;;3.92;0.93;;;9.30;99.90;;;;;;6070282;23;20055;-72
2021/03/27 04:32:40;;;;;;;2.33;1.00;;;9.40;99.90;;;;;;6071105;23;20013;-72
2021/03/27 04:35:20;;;;;;;1.38;0.80;;;9.40;99.90;;;;;;6069796;23;20054;-72
2021/03/27 04:37:51;;;;;;;2.05;0.80;;;9.40;99.90;;;;;;6070264;23;20015;-72
2021/03/27 04:40:28;;;;;;;1.13;0.63;;;9.50;99.90;;;;;;6070418;23;20007;-72
2021/03/27 04:43:22;;;;;;;1.10;0.70;;;9.40;99.90;;;;;;6070206;23;20007;-72
2021/03/27 04:45:52;;;;;;;0.90;0.70;;;9.40;99.90;;;;;;6069662;23;20007;-72
2021/03/27 04:48:52;;;;;;;1.02;0.90;;;9.30;99.90;;;;;;6069808;23;20133;-72
2021/03/27 04:51:31;;;;;;;0.60;0.60;;;9.40;99.90;;;;;;6070633;23;20014;-72
2021/03/27 04:54:11;;;;;;;2.50;0.90;;;9.50;99.90;;;;;;6070245;23;20058;-72
2021/03/27 04:57:10;;;;;;;2.30;1.00;;;9.40;99.90;;;;;;6069590;23;20457;-72
2021/03/27 05:00:05;;;;;;;1.33;0.82;;;9.40;99.90;;;;;;6066365;23;20026;-72
2021/03/27 05:02:38;;;;;;;2.10;1.00;;;9.40;99.90;;;;;;6069707;23;20064;-72
2021/03/27 05:05:12;;;;;;;3.10;1.05;;;9.40;99.90;;;;;;6069803;23;20009;-72
2021/03/27 05:07:56;;;;;;;3.83;1.10;;;9.60;99.90;;;;;;6070046;23;20007;-72
2021/03/27 05:10:53;;;;;;;3.42;0.90;;;9.50;99.90;;;;;;6069452;23;20010;-72
2021/03/27 05:13:28;;;;;;;5.78;1.02;;;9.50;99.90;;;;;;6049600;23;20343;-72
2021/03/27 05:16:09;;;;;;;1.95;1.00;;;9.50;99.90;;;;;;6098104;23;20002;-72
2021/03/27 05:18:39;;;;;;;5.93;1.30;;;9.50;99.90;;;;;;6098758;23;20037;-72
2021/03/27 05:21:41;;;;;;;1.83;1.00;;;9.50;99.90;;;;;;6098516;23;20300;-72
2021/03/27 05:24:18;;;;;;;3.35;1.15;;;9.50;99.90;;;;;;6097890;23;20446;-72
2021/03/27 05:26:52;;;;;;;2.20;0.88;;;9.60;99.90;;;;;;6098336;23;20076;-72
2021/03/27 05:29:39;;;;;;;2.90;1.00;;;9.60;99.90;;;;;;6098542;23;20061;-72
2021/03/27 05:32:31;;;;;;;4.15;1.10;;;9.60;99.90;;;;;;6098231;23;20006;-72
2021/03/27 05:35:06;;;;;;;3.78;1.23;;;9.50;99.90;;;;;;6087719;23;20006;-72
2021/03/27 05:37:34;;;;;;;6.05;1.50;;;9.60;99.90;;;;;;6098295;23;20006;-72
2021/03/27 05:40:25;;;;;;;5.43;1.65;;;9.50;99.90;;;;;;6098306;23;20058;-72
2021/03/27 05:43:22;;;;;;;4.47;2.03;;;9.50;99.90;;;;;;6098219;23;20003;-72
2021/03/27 05:46:29;;;;;;;4.00;1.42;;;9.50;99.90;;;;;;6098500;23;20006;-72
2021/03/27 05:49:22;;;;;;;4.70;1.60;;;9.50;99.90;;;;;;6068044;23;20014;-72
2021/03/27 05:52:09;;;;;;;6.00;1.20;;;9.40;99.90;;;;;;6098221;23;20009;-72
2021/03/27 05:55:10;;;;;;;2.78;1.10;;;9.30;99.90;;;;;;6097952;23;20085;-72
2021/03/27 05:57:41;;;;;;;3.03;1.33;;;9.30;99.90;;;;;;6050936;23;20014;-72
2021/03/27 06:00:34;;;;;;;3.88;1.15;;;9.30;99.90;;;;;;6098020;23;20006;-72
2021/03/27 06:03:37;;;;;;;4.38;1.33;;;9.30;99.90;;;;;;6097850;23;20085;-72
2021/03/27 06:06:20;;;;;;;1.67;0.82;;;9.20;99.90;;;;;;6098151;23;20002;-72
2021/03/27 06:09:32;;;;;;;3.13;1.00;;;9.20;99.90;;;;;;6098031;23;19998;-72
2021/03/27 06:12:19;;;;;;;3.38;1.10;;;9.20;99.90;;;;;;6008894;23;20392;-72
2021/03/27 06:15:08;;;;;;;3.65;0.93;;;9.20;99.90;;;;;;6069789;23;20021;-72
2021/03/27 06:17:45;;;;;;;4.95;1.55;;;9.20;99.90;;;;;;6069043;23;20010;-72
2021/03/27 06:20:13;;;;;;;2.53;1.67;;;9.40;99.90;;;;;;6069220;23;20002;-72
2021/03/27 06:23:00;;;;;;;3.22;1.63;;;9.50;99.90;;;;;;6069206;23;20010;-72
2021/03/27 06:26:05;;;;;;;1.83;0.85;;;9.50;99.90;;;;;;6069262;23;20011;-72
2021/03/27 06:29:08;;;;;;;4.38;1.42;;;9.50;99.90;;;;;;6069403;23;20007;-72
2021/03/27 06:32:07;;;;;;;4.10;1.13;;;9.60;99.90;;;;;;6069189;23;20449;-72
2021/03/27 06:34:33;;;;;;;3.83;1.45;;;9.40;99.90;;;;;;6068790;23;20007;-72
2021/03/27 06:37:05;;;;;;;4.97;2.58;;;9.20;99.90;;;;;;6069601;23;20058;-72
2021/03/27 06:39:49;;;;;;;1.50;1.13;;;9.20;99.90;;;;;;6069206;23;20011;-72
2021/03/27 06:42:33;;;;;;;4.70;1.30;;;9.40;99.90;;;;;;6069461;23;20003;-72
2021/03/27 06:45:14;;;;;;;2.47;1.20;;;9.50;99.90;;;;;;6069049;23;20049;-72
2021/03/27 06:47:52;;;;;;;3.95;1.00;;;9.70;99.90;;;;;;6069027;23;20074;-72
2021/03/27 06:50:40;;;;;;;4.88;1.35;;;9.70;99.90;;;;;;6069185;23;20434;-72
2021/03/27 06:53:14;;;;;;;3.58;1.20;;;9.50;99.90;;;;;;6069047;23;20006;-72
2021/03/27 06:56:17;;;;;;;5.88;1.30;;;9.50;99.90;;;;;;6068186;23;20082;-72
2021/03/27 06:59:04;;;;;;;3.95;0.82;;;9.40;99.90;;;;;;6067796;23;20078;-72
2021/03/27 07:01:57;;;;;;;5.20;1.40;;;9.70;99.90;;;;;;6068186;23;20077;-72
2021/03/27 07:04:45;;;;;;;4.88;1.10;;;9.50;99.90;;;;;;6068167;23;20401;-72
2021/03/27 07:07:29;;;;;;;6.07;1.35;;;9.50;99.90;;;;;;6068667;23;20450;-72
2021/03/27 07:10:22;;;;;;;6.70;1.38;;;9.50;99.90;;;;;;6069145;23;20003;-72
2021/03/27 07:13:19;;;;;;;5.70;1.00;;;9.70;99.90;;;;;;6069345;23;20081;-72
2021/03/27 07:15:48;;;;;;;4.75;1.27;;;9.60;99.90;;;;;;6068451;23;20090;-72
2021/03/27 07:18:29;;;;;;;6.28;1.45;;;9.60;99.90;;;;;;6064176;23;20003;-72
2021/03/27 07:21:19;;;;;;;8.85;1.20;;;9.50;99.90;;;;;;6065095;23;20011;-72
2021/03/27 07:24:09;;;;;;;4.13;0.98;;;9.40;99.90;;;;;;6066738;23;20007;-72
2021/03/27 07:26:35;;;;;;;6.63;1.00;;;9.30;99.90;;;;;;6068110;23;20003;-72
2021/03/27 07:29:37;;;;;;;4.35;1.10;;;9.20;99.80;;;;;;6068318;23;20247;-72
2021/03/27 07:32:51;;;;;;;3.80;0.98;;;9.10;99.90;;;;;;6067905;23;19999;-72
2021/03/27 07:35:46;;;;;;;5.25;1.20;;;9.20;99.90;;;;;;6008597;23;20068;-72
2021/03/27 07:38:33;;;;;;;5.57;1.10;;;9.10;99.90;;;;;;6068420;23;20010;-72
2021/03/27 07:41:15;;;;;;;5.75;1.10;;;9.20;99.90;;;;;;6068367;23;20007;-72
2021/03/27 07:44:03;;;;;;;3.83;0.95;;;9.20;97.20;;;;;;6068721;23;20018;-72
2021/03/27 07:47:03;;;;;;;7.00;1.90;;;9.20;97.50;;;;;;6067947;23;20061;-72
2021/03/27 07:49:54;;;;;;;5.03;1.15;;;9.30;96.20;;;;;;6067812;23;19999;-71
2021/03/27 07:52:31;;;;;;;4.88;0.90;;;9.30;95.10;;;;;;6062396;23;20428;-72
2021/03/27 07:55:36;;;;;;;6.45;0.98;;;9.30;92.10;;;;;;6067864;23;20033;-71
2021/03/27 07:58:37;;;;;;;4.35;0.82;;;9.20;92.50;;;;;;6043598;23;20074;-72
2021/03/27 08:01:30;;;;;;;7.22;1.13;;;9.30;92.90;;;;;;6067141;23;20065;-71
2021/03/27 08:04:46;;;;;;;4.20;0.98;;;9.40;93.90;;;;;;6067476;23;20034;-72
2021/03/27 08:07:41;;;;;;;5.70;1.10;;;9.40;92.50;;;;;;6069483;23;20003;-72
2021/03/27 08:10:20;;;;;;;3.30;0.95;;;9.40;92.10;;;;;;6069392;23;20006;-72
2021/03/27 08:12:51;;;;;;;3.85;1.13;;;9.40;90.70;;;;;;6069944;23;20090;-72
2021/03/27 08:15:39;;;;;;;3.97;1.20;;;9.50;90.10;;;;;;6069338;23;20050;-72
2021/03/27 08:18:26;;;;;;;3.78;1.05;;;9.50;88.90;;;;;;6069426;23;20030;-72
2021/03/27 08:21:01;;;;;;;3.25;1.02;;;9.50;88.40;;;;;;6069012;23;20033;-72
2021/03/27 08:23:44;;;;;;;5.47;1.33;;;9.60;84.40;;;;;;6069751;23;20006;-71
2021/03/27 08:26:12;;;;;;;3.90;0.93;;;9.50;82.30;;;;;;6069102;23;20014;-71
2021/03/27 08:28:53;;;;;;;4.15;0.93;;;9.70;82.80;;;;;;6069629;23;20002;-71
2021/03/27 08:31:41;;;;;;;4.53;1.00;;;9.70;79.60;;;;;;6043680;23;20059;-71
2021/03/27 08:34:21;;;;;;;3.47;0.88;;;9.70;81.70;;;;;;6069421;23;20494;-71
2021/03/27 08:37:21;;;;;;;3.00;0.90;;;9.70;79.00;;;;;;6069182;23;19999;-71
2021/03/27 08:39:56;;;;;;;5.85;1.10;;;9.70;80.50;;;;;;6069573;23;20003;-71
2021/03/27 08:42:46;;;;;;;4.35;1.30;;;9.80;79.00;;;;;;6068292;23;20038;-71
2021/03/27 08:45:42;;;;;;;4.15;0.90;;;9.80;80.80;;;;;;6069204;23;20002;-71
2021/03/27 08:48:29;;;;;;;2.90;0.80;;;9.80;80.60;;;;;;6068644;23;20007;-71
2021/03/27 08:51:04;;;;;;;6.32;0.90;;;9.90;76.90;;;;;;6069123;23;20078;-71
2021/03/27 08:53:41;;;;;;;4.13;1.17;;;9.90;75.70;;;;;;6061458;23;20003;-71
2021/03/27 08:56:34;;;;;;;3.72;1.00;;;9.90;76.80;;;;;;6068262;23;20069;-72
2021/03/27 08:59:05;;;;;;;3.97;1.25;;;10.10;76.40;;;;;;6068639;23;20014;-71
2021/03/27 09:01:40;;;;;;;3.28;1.20;;;10.20;74.70;;;;;;6066484;23;20017;-71
2021/03/27 09:04:44;;;;;;;5.57;1.02;;;10.30;74.90;;;;;;6066135;23;20011;-72
2021/03/27 09:07:39;;;;;;;3.63;1.23;;;10.30;72.90;;;;;;6055190;23;20010;-72
2021/03/27 09:10:30;;;;;;;6.50;1.08;;;10.20;71.30;;;;;;6066942;23;20015;-73
2021/03/27 09:13:15;;;;;;;4.07;1.45;;;10.30;74.50;;;;;;6068103;23;20007;-72
2021/03/27 09:15:47;;;;;;;4.30;1.48;;;10.30;73.90;;;;;;6067674;23;20399;-72
2021/03/27 09:18:44;;;;;;;6.85;1.33;;;10.30;73.20;;;;;;6068209;23;20003;-73
2021/03/27 09:21:47;;;;;;;3.97;0.90;;;10.20;75.30;;;;;;6067294;23;20017;-73
2021/03/27 09:24:37;;;;;;;9.63;2.50;;;10.40;76.70;;;;;;6068667;23;20047;-71
2021/03/27 09:27:14;;;;;;;4.57;1.17;;;10.40;75.70;;;;;;6068169;23;20446;-71
2021/03/27 09:30:04;;;;;;;2.88;0.82;;;10.50;74.50;;;;;;6068225;23;20013;-71
2021/03/27 09:32:38;;;;;;;2.93;1.33;;;10.50;74.30;;;;;;6068369;23;20006;-72
2021/03/27 09:35:44;;;;;;;3.33;0.73;;;10.60;70.20;;;;;;6068099;23;20038;-72
2021/03/27 09:38:25;;;;;;;4.07;0.90;;;10.50;68.90;;;;;;6067539;23;20003;-71
2021/03/27 09:41:10;;;;;;;2.67;0.75;;;10.60;66.30;;;;;;6066029;23;20010;-71
2021/03/27 09:44:08;;;;;;;4.25;0.90;;;10.60;67.80;;;;;;6066104;23;20086;-71
2021/03/27 09:46:58;;;;;;;3.30;1.15;;;10.70;67.40;;;;;;6067056;23;20007;-71
2021/03/27 09:49:38;;;;;;;3.58;1.10;;;10.70;67.00;;;;;;6067173;23;20003;-71
2021/03/27 09:52:12;;;;;;;5.57;1.23;;;10.70;64.90;;;;;;6067972;23;20006;-71
2021/03/27 09:54:49;;;;;;;3.97;0.90;;;10.70;66.30;;;;;;6067639;23;20446;-71
2021/03/27 09:57:27;;;;;;;4.93;1.00;;;10.70;66.60;;;;;;6067507;23;20034;-69
2021/03/27 10:00:14;;;;;;;3.53;0.90;;;10.70;66.40;;;;;;6068078;23;20010;-70
2021/03/27 10:02:55;;;;;;;3.10;0.85;;;10.80;65.90;;;;;;6067721;23;20007;-69
2021/03/27 10:05:32;;;;;;;3.45;1.02;;;10.70;66.70;;;;;;6067792;23;20007;-69
2021/03/27 10:07:57;;;;;;;3.97;1.30;;;10.70;65.90;;;;;;6065752;23;20010;-69
2021/03/27 10:10:43;;;;;;;3.63;0.98;;;10.80;67.40;;;;;;6059261;23;20006;-70
2021/03/27 10:13:33;;;;;;;2.47;0.75;;;10.90;65.80;;;;;;6067898;23;20003;-70
2021/03/27 10:15:59;;;;;;;2.80;0.80;;;11.00;62.00;;;;;;6066363;23;20440;-69
2021/03/27 10:18:34;;;;;;;2.13;0.70;;;11.00;60.10;;;;;;6067722;23;20035;-70
2021/03/27 10:21:12;;;;;;;4.95;1.42;;;11.00;61.70;;;;;;6067044;23;20007;-70
2021/03/27 10:23:56;;;;;;;5.25;0.80;;;11.00;62.80;;;;;;6067554;23;20517;-71
2021/03/27 10:26:29;;;;;;;17.58;11.15;;;11.00;60.40;;;;;;6067123;23;20005;-69
2021/03/27 10:28:57;;;;;;;47.55;22.35;;;11.20;60.40;;;;;;6068395;23;20033;-69
2021/03/27 10:31:37;;;;;;;25.55;11.57;;;11.20;58.50;;;;;;6066386;23;20538;-70
2021/03/27 10:34:05;;;;;;;78.20;43.03;;;11.10;58.10;;;;;;6067750;23;20007;-70
2021/03/27 10:37:05;;;;;;;11.77;8.13;;;11.20;62.40;;;;;;6068348;23;20035;-70
2021/03/27 10:39:48;;;;;;;15.52;9.43;;;11.10;59.30;;;;;;6066972;23;20006;-69
2021/03/27 10:42:33;;;;;;;12.98;8.98;;;11.20;61.30;;;;;;6067966;23;20081;-70
2021/03/27 10:45:23;;;;;;;59.45;42.65;;;11.40;60.20;;;;;;6068380;23;20443;-70
2021/03/27 10:48:04;;;;;;;49.15;33.63;;;11.40;57.40;;;;;;6068165;23;20006;-70
2021/03/27 10:50:43;;;;;;;385.52;316.63;;;11.60;58.60;;;;;;6067926;23;20002;-69
2021/03/27 10:53:17;;;;;;;27.77;22.20;;;11.50;57.80;;;;;;6067911;23;20058;-70
2021/03/27 10:56:17;;;;;;;16.20;12.05;;;11.70;60.00;;;;;;6068083;23;20022;-72
2021/03/27 10:59:12;;;;;;;14.40;9.93;;;11.70;57.70;;;;;;6067910;23;20003;-72
2021/03/27 11:02:24;;;;;;;6.28;3.95;;;11.90;56.70;;;;;;6039793;23;20021;-72
2021/03/27 11:05:18;;;;;;;61.70;37.63;;;11.70;55.90;;;;;;6067979;23;20003;-72
2021/03/27 11:07:53;;;;;;;11.55;8.68;;;11.80;57.60;;;;;;6068031;23;20007;-72
2021/03/27 11:10:50;;;;;;;43.63;30.15;;;11.70;57.40;;;;;;6067319;23;20351;-72
2021/03/27 11:13:37;;;;;;;48.42;34.83;;;12.00;56.20;;;;;;6068032;23;20019;-72
2021/03/27 11:16:08;;;;;;;73.18;52.42;;;11.80;55.30;;;;;;6067385;23;20007;-72
2021/03/27 11:19:08;;;;;;;4.95;2.47;;;11.80;57.80;;;;;;6042553;23;20007;-72
2021/03/27 11:22:38;;;;;;;32.58;21.70;;;11.80;56.30;;;;;;6067705;23;20073;-71
2021/03/27 11:25:12;;;;;;;342.38;305.65;;;12.00;55.40;;;;;;5926196;24;20529;-72
2021/03/27 11:28:01;;;;;;;35.00;31.17;;;12.10;55.80;;;;;;5924902;24;20021;-71
2021/03/27 11:30:32;;;;;;;10.60;9.40;;;12.00;55.30;;;;;;6022927;23;20014;-72
2021/03/27 11:33:14;;;;;;;288.50;242.40;;;12.20;55.40;;;;;;6069590;23;20003;-72
2021/03/27 11:36:05;;;;;;;398.38;343.88;;;12.10;55.90;;;;;;6070524;23;20032;-72
2021/03/27 11:38:39;;;;;;;507.52;394.83;;;12.10;57.00;;;;;;6069786;23;20009;-72
2021/03/27 11:41:19;;;;;;;400.65;321.33;;;12.10;57.20;;;;;;6069464;23;20085;-71
2021/03/27 11:43:57;;;;;;;195.45;144.35;;;12.10;58.20;;;;;;6068054;23;20414;-71
2021/03/27 11:46:27;;;;;;;28.25;20.83;;;12.10;57.10;;;;;;6069375;23;20007;-72
2021/03/27 11:49:19;;;;;;;256.13;206.90;;;12.00;55.70;;;;;;6069862;23;20003;-71
2021/03/27 11:51:54;;;;;;;19.10;16.95;;;12.20;55.50;;;;;;6069734;23;20003;-72
2021/03/27 11:54:42;;;;;;;7.70;3.67;;;12.20;56.40;;;;;;6069711;23;20041;-72
2021/03/27 11:57:33;;;;;;;5.68;1.90;;;12.30;57.30;;;;;;6069407;23;20003;-72
2021/03/27 12:03:25;;;;;;;1.80;0.70;;;12.20;57.40;;;;;;6069253;23;20481;-72
2021/03/27 12:06:12;;;;;;;3.47;1.27;;;12.20;57.60;;;;;;6069442;23;20006;-72
2021/03/27 12:09:03;;;;;;;3.33;1.17;;;12.40;58.10;;;;;;6070346;23;20082;-72
2021/03/27 12:11:29;;;;;;;3.22;0.90;;;12.50;57.40;;;;;;6069334;23;20018;-72
2021/03/27 12:14:14;;;;;;;5.13;0.80;;;12.60;57.40;;;;;;6070102;23;20347;-72
2021/03/27 12:16:56;;;;;;;3.03;0.93;;;12.60;57.90;;;;;;6069641;23;20003;-71
2021/03/27 12:19:35;;;;;;;3.55;0.98;;;12.50;58.20;;;;;;6069729;23;20003;-71
2021/03/27 12:22:09;;;;;;;3.95;2.28;;;12.40;58.40;;;;;;6066759;23;20065;-72
2021/03/27 12:24:57;;;;;;;5.32;2.35;;;12.50;58.60;;;;;;6067780;23;20034;-71
2021/03/27 12:27:38;;;;;;;4.40;1.17;;;12.40;60.20;;;;;;6067088;23;20011;-71
2021/03/27 12:30:07;;;;;;;3.65;1.50;;;12.50;58.40;;;;;;6067615;23;20034;-71
2021/03/27 12:32:48;;;;;;;3.88;1.65;;;12.50;58.40;;;;;;6067109;23;20479;-71
2021/03/27 12:35:27;;;;;;;4.38;1.48;;;12.60;57.60;;;;;;6041913;23;20021;-71
2021/03/27 12:38:02;;;;;;;5.55;1.88;;;12.70;56.90;;;;;;6067127;23;20522;-71
2021/03/27 12:40:43;;;;;;;10.50;7.80;;;12.60;57.80;;;;;;6067611;23;20006;-71
2021/03/27 12:43:16;;;;;;;3.63;1.00;;;12.60;57.80;;;;;;6068636;23;20010;-71
2021/03/27 12:45:58;;;;;;;4.82;1.23;;;12.50;58.10;;;;;;6068894;23;20082;-71
2021/03/27 12:48:35;;;;;;;2.85;1.55;;;12.50;59.20;;;;;;6061670;23;20540;-71
2021/03/27 12:51:38;;;;;;;6.82;0.90;;;12.70;56.50;;;;;;6067652;23;20002;-71
2021/03/27 12:54:16;;;;;;;5.00;1.17;;;12.70;53.90;;;;;;6068553;23;20006;-71
2021/03/27 12:56:59;;;;;;;3.25;0.88;;;12.80;53.50;;;;;;6068462;23;20030;-71
2021/03/27 12:59:38;;;;;;;4.35;0.90;;;12.80;54.10;;;;;;6068604;23;20030;-71
2021/03/27 13:02:20;;;;;;;2.45;0.95;;;12.80;54.50;;;;;;6066503;23;20011;-73
2021/03/27 13:05:10;;;;;;;3.08;1.55;;;12.60;54.70;;;;;;6068246;23;20013;-72
2021/03/27 13:07:45;;;;;;;5.82;2.35;;;12.60;56.30;;;;;;6069091;23;20443;-72
2021/03/27 13:10:31;;;;;;;3.67;2.03;;;12.70;57.70;;;;;;6068360;23;20011;-71
2021/03/27 13:13:12;;;;;;;5.20;1.30;;;12.90;56.00;;;;;;6068866;23;20003;-72
2021/03/27 13:16:06;;;;;;;2.75;1.17;;;12.90;57.80;;;;;;6068805;23;20014;-72
2021/03/27 13:18:54;;;;;;;7.32;1.60;;;12.70;57.00;;;;;;6069038;23;19999;-72
2021/03/27 13:21:46;;;;;;;8.68;0.90;;;12.90;56.90;;;;;;6068351;23;20018;-72
2021/03/27 13:24:19;;;;;;;3.63;1.05;;;13.10;54.40;;;;;;6061472;23;20078;-72
2021/03/27 13:26:46;;;;;;;5.15;1.58;;;13.10;54.50;;;;;;6068288;23;20435;-72
2021/03/27 13:29:46;;;;;;;3.97;1.70;;;13.20;55.00;;;;;;6068420;23;19999;-72
2021/03/27 13:32:23;;;;;;;2.75;1.10;;;13.10;54.70;;;;;;6036173;23;20435;-72
2021/03/27 13:35:18;;;;;;;5.88;2.53;;;13.10;54.50;;;;;;6068635;23;20086;-72
2021/03/27 13:37:59;;;;;;;4.88;1.73;;;13.10;55.20;;;;;;6068240;23;20082;-71
2021/03/27 13:40:29;;;;;;;;;;;13.10;55.70;;;;;;6069029;23;20470;-72
2021/03/27 13:42:55;;;;;;;5.20;1.20;;;13.10;55.90;;;;;;6068251;23;19910;-72
2021/03/27 13:45:45;;;;;;;6.72;1.50;;;13.00;57.20;;;;;;6068553;23;20086;-72
2021/03/27 13:48:11;;;;;;;3.20;1.20;;;13.10;57.40;;;;;;6067017;23;20011;-71
2021/03/27 13:51:19;;;;;;;2.50;0.80;;;13.20;57.60;;;;;;6068915;23;20007;-71
2021/03/27 13:54:19;;;;;;;3.00;1.40;;;13.10;55.90;;;;;;6048611;23;20010;-71
2021/03/27 13:57:11;;;;;;;4.97;1.75;;;13.20;52.20;;;;;;6069230;23;20006;-71
2021/03/27 13:59:49;;;;;;;3.53;1.00;;;13.20;52.00;;;;;;6068796;23;20003;-72
2021/03/27 14:03:11;;;;;;;5.80;1.20;;;13.30;53.30;;;;;;6067260;23;20082;-72
2021/03/27 14:05:51;;;;;;;4.55;1.05;;;13.30;51.40;;;;;;6007199;23;20482;-72
2021/03/27 14:09:08;;;;;;;1.73;0.90;;;13.20;51.20;;;;;;6066401;23;20108;-72
2021/03/27 14:11:54;;;;;;;2.28;0.90;;;13.10;52.10;;;;;;6068263;23;20037;-72
2021/03/27 14:14:25;;;;;;;2.10;0.70;;;13.10;53.40;;;;;;6068793;23;20019;-72
2021/03/27 14:16:51;;;;;;;3.15;0.93;;;13.20;52.20;;;;;;6066800;23;20074;-72
2021/03/27 14:19:33;;;;;;;2.33;0.90;;;13.10;53.00;;;;;;6066186;23;20006;-72
2021/03/27 14:22:29;;;;;;;1.80;0.90;;;13.20;53.10;;;;;;6067238;23;20082;-72